sensor_id;sensor_type;location;lat;lon;timestamp;P1;durP1;ratioP1;P2;durP2;ratioP2
19396;SDS011;9834;48.076;11.878;2022-09-09T00:00:23;0.97;;;0.93;;
19396;SDS011;9834;48.076;11.878;2022-09-09T00:02:53;2.87;;;1.10;;
19396;SDS011;9834;48.076;11.878;2022-09-09T00:05:29;0.87;;;0.87;;
19396;SDS011;9834;48.076;11.878;2022-09-09T00:08:02;0.70;;;0.70;;
19396;SDS011;9834;48.076;11.878;2022-09-09T00:10:31;4.63;;;1.30;;
19396;SDS011;9834;48.076;11.878;2022-09-09T00:13:04;1.00;;;0.90;;
19396;SDS011;9834;48.076;11.878;2022-09-09T00:15:42;1.67;;;1.30;;
19396;SDS011;9834;48.076;11.878;2022-09-09T00:18:22;0.80;;;0.80;;
19396;SDS011;9834;48.076;11.878;2022-09-09T00:20:55;0.93;;;0.93;;
19396;SDS011;9834;48.076;11.878;2022-09-09T00:23:32;0.90;;;0.90;;
19396;SDS011;9834;48.076;11.878;2022-09-09T00:26:03;0.77;;;0.77;;
19396;SDS011;9834;48.076;11.878;2022-09-09T00:28:36;1.10;;;1.00;;
19396;SDS011;9834;48.076;11.878;2022-09-09T00:31:11;1.00;;;1.00;;
19396;SDS011;9834;48.076;11.878;2022-09-09T00:33:39;1.40;;;1.30;;
19396;SDS011;9834;48.076;11.878;2022-09-09T00:36:09;1.47;;;1.10;;
19396;SDS011;9834;48.076;11.878;2022-09-09T00:38:42;1.67;;;1.50;;
19396;SDS011;9834;48.076;11.878;2022-09-09T00:41:13;1.00;;;0.87;;
19396;SDS011;9834;48.076;11.878;2022-09-09T00:43:46;0.97;;;0.90;;
19396;SDS011;9834;48.076;11.878;2022-09-09T00:46:25;1.50;;;1.10;;
19396;SDS011;9834;48.076;11.878;2022-09-09T00:49:11;1.60;;;1.00;;
19396;SDS011;9834;48.076;11.878;2022-09-09T00:51:48;0.70;;;0.70;;
19396;SDS011;9834;48.076;11.878;2022-09-09T00:54:30;1.20;;;1.10;;
19396;SDS011;9834;48.076;11.878;2022-09-09T00:57:07;1.60;;;1.00;;
19396;SDS011;9834;48.076;11.878;2022-09-09T00:59:44;0.93;;;0.90;;
19396;SDS011;9834;48.076;11.878;2022-09-09T01:02:16;1.03;;;1.03;;
19396;SDS011;9834;48.076;11.878;2022-09-09T01:04:52;0.97;;;0.97;;
19396;SDS011;9834;48.076;11.878;2022-09-09T01:07:19;0.70;;;0.70;;
19396;SDS011;9834;48.076;11.878;2022-09-09T01:09:55;0.77;;;0.77;;
19396;SDS011;9834;48.076;11.878;2022-09-09T01:12:25;2.03;;;1.40;;
19396;SDS011;9834;48.076;11.878;2022-09-09T01:14:57;3.90;;;0.90;;
19396;SDS011;9834;48.076;11.878;2022-09-09T01:17:34;0.97;;;0.83;;
19396;SDS011;9834;48.076;11.878;2022-09-09T01:20:05;0.67;;;0.67;;
19396;SDS011;9834;48.076;11.878;2022-09-09T01:22:41;1.43;;;1.00;;
19396;SDS011;9834;48.076;11.878;2022-09-09T01:25:30;0.97;;;0.93;;
19396;SDS011;9834;48.076;11.878;2022-09-09T01:28:19;3.20;;;1.23;;
19396;SDS011;9834;48.076;11.878;2022-09-09T01:30:51;3.80;;;1.03;;
19396;SDS011;9834;48.076;11.878;2022-09-09T01:33:19;0.83;;;0.83;;
19396;SDS011;9834;48.076;11.878;2022-09-09T01:35:46;0.70;;;0.70;;
19396;SDS011;9834;48.076;11.878;2022-09-09T01:38:19;1.33;;;0.80;;
19396;SDS011;9834;48.076;11.878;2022-09-09T01:40:47;1.40;;;1.23;;
19396;SDS011;9834;48.076;11.878;2022-09-09T01:43:18;2.23;;;0.87;;
19396;SDS011;9834;48.076;11.878;2022-09-09T01:45:46;0.90;;;0.90;;
19396;SDS011;9834;48.076;11.878;2022-09-09T01:48:17;3.00;;;1.53;;
19396;SDS011;9834;48.076;11.878;2022-09-09T01:50:45;1.10;;;1.00;;
19396;SDS011;9834;48.076;11.878;2022-09-09T01:53:11;1.10;;;1.00;;
19396;SDS011;9834;48.076;11.878;2022-09-09T01:55:44;1.90;;;0.87;;
19396;SDS011;9834;48.076;11.878;2022-09-09T01:58:25;4.00;;;0.77;;
19396;SDS011;9834;48.076;11.878;2022-09-09T02:01:02;1.70;;;1.07;;
19396;SDS011;9834;48.076;11.878;2022-09-09T02:03:34;2.43;;;0.87;;
19396;SDS011;9834;48.076;11.878;2022-09-09T02:06:05;0.67;;;0.67;;
19396;SDS011;9834;48.076;11.878;2022-09-09T02:08:41;3.70;;;0.90;;
19396;SDS011;9834;48.076;11.878;2022-09-09T02:11:12;0.87;;;0.77;;
19396;SDS011;9834;48.076;11.878;2022-09-09T02:13:43;0.73;;;0.73;;
19396;SDS011;9834;48.076;11.878;2022-09-09T02:16:12;0.80;;;0.80;;
19396;SDS011;9834;48.076;11.878;2022-09-09T02:18:45;0.63;;;0.63;;
19396;SDS011;9834;48.076;11.878;2022-09-09T02:21:17;1.50;;;1.17;;
19396;SDS011;9834;48.076;11.878;2022-09-09T02:23:46;1.43;;;0.90;;
19396;SDS011;9834;48.076;11.878;2022-09-09T02:26:17;6.47;;;1.33;;
19396;SDS011;9834;48.076;11.878;2022-09-09T02:28:48;1.00;;;0.90;;
19396;SDS011;9834;48.076;11.878;2022-09-09T02:31:18;0.93;;;0.93;;
19396;SDS011;9834;48.076;11.878;2022-09-09T02:33:49;4.43;;;1.27;;
19396;SDS011;9834;48.076;11.878;2022-09-09T02:36:18;1.17;;;1.03;;
19396;SDS011;9834;48.076;11.878;2022-09-09T02:38:48;0.93;;;0.80;;
19396;SDS011;9834;48.076;11.878;2022-09-09T02:41:18;1.50;;;1.40;;
19396;SDS011;9834;48.076;11.878;2022-09-09T02:43:48;1.33;;;1.33;;
19396;SDS011;9834;48.076;11.878;2022-09-09T02:46:19;2.53;;;1.00;;
19396;SDS011;9834;48.076;11.878;2022-09-09T02:48:59;1.43;;;1.20;;
19396;SDS011;9834;48.076;11.878;2022-09-09T02:51:32;0.70;;;0.70;;
19396;SDS011;9834;48.076;11.878;2022-09-09T02:54:09;0.90;;;0.90;;
19396;SDS011;9834;48.076;11.878;2022-09-09T02:56:40;2.03;;;1.60;;
19396;SDS011;9834;48.076;11.878;2022-09-09T02:59:13;3.33;;;1.13;;
19396;SDS011;9834;48.076;11.878;2022-09-09T03:01:40;1.10;;;1.00;;
19396;SDS011;9834;48.076;11.878;2022-09-09T03:04:07;1.93;;;1.40;;
19396;SDS011;9834;48.076;11.878;2022-09-09T03:06:34;1.10;;;1.00;;
19396;SDS011;9834;48.076;11.878;2022-09-09T03:09:02;6.40;;;1.70;;
19396;SDS011;9834;48.076;11.878;2022-09-09T03:11:29;0.90;;;0.90;;
19396;SDS011;9834;48.076;11.878;2022-09-09T03:13:56;1.23;;;1.13;;
19396;SDS011;9834;48.076;11.878;2022-09-09T03:16:24;1.30;;;1.20;;
19396;SDS011;9834;48.076;11.878;2022-09-09T03:18:51;1.80;;;1.70;;
19396;SDS011;9834;48.076;11.878;2022-09-09T03:21:18;5.50;;;1.13;;
19396;SDS011;9834;48.076;11.878;2022-09-09T03:23:45;1.20;;;0.97;;
19396;SDS011;9834;48.076;11.878;2022-09-09T03:26:12;1.50;;;1.40;;
19396;SDS011;9834;48.076;11.878;2022-09-09T03:28:40;2.07;;;1.47;;
19396;SDS011;9834;48.076;11.878;2022-09-09T03:31:07;1.50;;;1.40;;
19396;SDS011;9834;48.076;11.878;2022-09-09T03:33:36;0.70;;;0.70;;
19396;SDS011;9834;48.076;11.878;2022-09-09T03:36:04;2.17;;;1.33;;
19396;SDS011;9834;48.076;11.878;2022-09-09T03:38:32;1.80;;;1.50;;
19396;SDS011;9834;48.076;11.878;2022-09-09T03:40:59;1.60;;;1.50;;
19396;SDS011;9834;48.076;11.878;2022-09-09T03:43:27;1.00;;;1.00;;
19396;SDS011;9834;48.076;11.878;2022-09-09T03:45:55;1.73;;;1.20;;
19396;SDS011;9834;48.076;11.878;2022-09-09T03:48:23;1.53;;;1.13;;
19396;SDS011;9834;48.076;11.878;2022-09-09T03:50:52;1.10;;;1.00;;
19396;SDS011;9834;48.076;11.878;2022-09-09T03:53:23;1.57;;;1.30;;
19396;SDS011;9834;48.076;11.878;2022-09-09T03:55:51;0.93;;;0.90;;
19396;SDS011;9834;48.076;11.878;2022-09-09T03:58:21;1.20;;;1.03;;
19396;SDS011;9834;48.076;11.878;2022-09-09T04:03:59;2.30;;;1.50;;
19396;SDS011;9834;48.076;11.878;2022-09-09T04:06:36;2.90;;;1.73;;
19396;SDS011;9834;48.076;11.878;2022-09-09T04:09:05;1.40;;;1.30;;
19396;SDS011;9834;48.076;11.878;2022-09-09T04:11:41;2.00;;;1.30;;
19396;SDS011;9834;48.076;11.878;2022-09-09T04:14:09;1.57;;;1.40;;
19396;SDS011;9834;48.076;11.878;2022-09-09T04:16:36;1.30;;;1.20;;
19396;SDS011;9834;48.076;11.878;2022-09-09T04:19:03;1.73;;;1.37;;
19396;SDS011;9834;48.076;11.878;2022-09-09T04:21:31;1.90;;;1.50;;
19396;SDS011;9834;48.076;11.878;2022-09-09T04:24:00;1.43;;;1.33;;
19396;SDS011;9834;48.076;11.878;2022-09-09T04:26:27;3.27;;;1.73;;
19396;SDS011;9834;48.076;11.878;2022-09-09T04:28:54;1.53;;;1.07;;
19396;SDS011;9834;48.076;11.878;2022-09-09T04:31:22;1.50;;;1.40;;
19396;SDS011;9834;48.076;11.878;2022-09-09T04:33:49;1.40;;;1.10;;
19396;SDS011;9834;48.076;11.878;2022-09-09T04:36:17;1.00;;;1.00;;
19396;SDS011;9834;48.076;11.878;2022-09-09T04:38:45;1.77;;;1.20;;
19396;SDS011;9834;48.076;11.878;2022-09-09T04:41:15;1.23;;;1.10;;
19396;SDS011;9834;48.076;11.878;2022-09-09T04:43:42;1.10;;;1.00;;
19396;SDS011;9834;48.076;11.878;2022-09-09T04:46:10;3.37;;;1.53;;
19396;SDS011;9834;48.076;11.878;2022-09-09T04:48:37;4.10;;;1.30;;
19396;SDS011;9834;48.076;11.878;2022-09-09T04:51:05;0.90;;;0.90;;
19396;SDS011;9834;48.076;11.878;2022-09-09T04:53:34;1.60;;;1.23;;
19396;SDS011;9834;48.076;11.878;2022-09-09T04:56:02;1.40;;;1.30;;
19396;SDS011;9834;48.076;11.878;2022-09-09T04:58:32;1.10;;;1.10;;
19396;SDS011;9834;48.076;11.878;2022-09-09T05:01:03;0.87;;;0.87;;
19396;SDS011;9834;48.076;11.878;2022-09-09T05:03:30;5.93;;;1.20;;
19396;SDS011;9834;48.076;11.878;2022-09-09T05:06:01;1.33;;;1.07;;
19396;SDS011;9834;48.076;11.878;2022-09-09T05:08:30;1.47;;;1.00;;
19396;SDS011;9834;48.076;11.878;2022-09-09T05:10:57;1.50;;;1.20;;
19396;SDS011;9834;48.076;11.878;2022-09-09T05:13:24;1.43;;;1.33;;
19396;SDS011;9834;48.076;11.878;2022-09-09T05:15:54;2.27;;;1.10;;
19396;SDS011;9834;48.076;11.878;2022-09-09T05:18:21;1.43;;;1.33;;
19396;SDS011;9834;48.076;11.878;2022-09-09T05:20:48;1.60;;;1.23;;
19396;SDS011;9834;48.076;11.878;2022-09-09T05:23:16;1.53;;;1.20;;
19396;SDS011;9834;48.076;11.878;2022-09-09T05:25:43;1.63;;;1.27;;
19396;SDS011;9834;48.076;11.878;2022-09-09T05:28:11;1.30;;;1.20;;
19396;SDS011;9834;48.076;11.878;2022-09-09T05:30:38;2.30;;;1.70;;
19396;SDS011;9834;48.076;11.878;2022-09-09T05:33:07;0.97;;;0.97;;
19396;SDS011;9834;48.076;11.878;2022-09-09T05:35:34;1.67;;;1.57;;
19396;SDS011;9834;48.076;11.878;2022-09-09T05:38:01;1.70;;;1.17;;
19396;SDS011;9834;48.076;11.878;2022-09-09T05:40:28;4.67;;;1.60;;
19396;SDS011;9834;48.076;11.878;2022-09-09T05:42:55;4.97;;;1.97;;
19396;SDS011;9834;48.076;11.878;2022-09-09T05:45:26;1.50;;;1.40;;
19396;SDS011;9834;48.076;11.878;2022-09-09T05:47:54;1.23;;;1.13;;
19396;SDS011;9834;48.076;11.878;2022-09-09T05:50:22;1.20;;;1.10;;
19396;SDS011;9834;48.076;11.878;2022-09-09T05:52:49;1.40;;;1.30;;
19396;SDS011;9834;48.076;11.878;2022-09-09T05:55:20;0.93;;;0.93;;
19396;SDS011;9834;48.076;11.878;2022-09-09T05:57:48;1.53;;;1.27;;
19396;SDS011;9834;48.076;11.878;2022-09-09T06:00:18;0.60;;;0.60;;
19396;SDS011;9834;48.076;11.878;2022-09-09T06:02:50;1.10;;;1.00;;
19396;SDS011;9834;48.076;11.878;2022-09-09T06:05:18;1.27;;;0.77;;
19396;SDS011;9834;48.076;11.878;2022-09-09T06:07:49;0.70;;;0.70;;
19396;SDS011;9834;48.076;11.878;2022-09-09T06:10:18;0.93;;;0.93;;
19396;SDS011;9834;48.076;11.878;2022-09-09T06:12:45;1.00;;;0.97;;
19396;SDS011;9834;48.076;11.878;2022-09-09T06:15:12;1.13;;;1.10;;
19396;SDS011;9834;48.076;11.878;2022-09-09T06:17:39;3.17;;;1.40;;
19396;SDS011;9834;48.076;11.878;2022-09-09T06:20:07;1.00;;;0.90;;
19396;SDS011;9834;48.076;11.878;2022-09-09T06:22:35;2.87;;;0.70;;
19396;SDS011;9834;48.076;11.878;2022-09-09T06:25:03;0.70;;;0.70;;
19396;SDS011;9834;48.076;11.878;2022-09-09T06:27:31;0.60;;;0.60;;
19396;SDS011;9834;48.076;11.878;2022-09-09T06:29:58;0.70;;;0.70;;
19396;SDS011;9834;48.076;11.878;2022-09-09T06:32:24;0.50;;;0.50;;
19396;SDS011;9834;48.076;11.878;2022-09-09T06:34:52;0.80;;;0.80;;
19396;SDS011;9834;48.076;11.878;2022-09-09T06:37:19;0.43;;;0.43;;
19396;SDS011;9834;48.076;11.878;2022-09-09T06:39:46;0.60;;;0.60;;
19396;SDS011;9834;48.076;11.878;2022-09-09T06:42:14;0.60;;;0.60;;
19396;SDS011;9834;48.076;11.878;2022-09-09T06:44:41;1.57;;;0.73;;
19396;SDS011;9834;48.076;11.878;2022-09-09T06:47:08;0.60;;;0.60;;
19396;SDS011;9834;48.076;11.878;2022-09-09T06:49:36;1.00;;;0.90;;
19396;SDS011;9834;48.076;11.878;2022-09-09T06:52:02;0.30;;;0.30;;
19396;SDS011;9834;48.076;11.878;2022-09-09T06:54:29;0.77;;;0.57;;
19396;SDS011;9834;48.076;11.878;2022-09-09T06:56:56;1.90;;;0.90;;
19396;SDS011;9834;48.076;11.878;2022-09-09T06:59:26;2.00;;;0.43;;
19396;SDS011;9834;48.076;11.878;2022-09-09T07:01:55;0.87;;;0.70;;
19396;SDS011;9834;48.076;11.878;2022-09-09T07:04:23;0.63;;;0.60;;
19396;SDS011;9834;48.076;11.878;2022-09-09T07:06:50;0.30;;;0.30;;
19396;SDS011;9834;48.076;11.878;2022-09-09T07:09:17;2.17;;;0.40;;
19396;SDS011;9834;48.076;11.878;2022-09-09T07:11:45;0.50;;;0.50;;
19396;SDS011;9834;48.076;11.878;2022-09-09T07:14:14;0.40;;;0.40;;
19396;SDS011;9834;48.076;11.878;2022-09-09T07:16:43;4.43;;;0.80;;
19396;SDS011;9834;48.076;11.878;2022-09-09T07:19:11;0.70;;;0.53;;
19396;SDS011;9834;48.076;11.878;2022-09-09T07:21:39;0.73;;;0.70;;
19396;SDS011;9834;48.076;11.878;2022-09-09T07:24:06;0.40;;;0.40;;
19396;SDS011;9834;48.076;11.878;2022-09-09T07:26:35;3.80;;;0.60;;
19396;SDS011;9834;48.076;11.878;2022-09-09T07:29:02;0.30;;;0.30;;
19396;SDS011;9834;48.076;11.878;2022-09-09T07:31:30;0.70;;;0.70;;
19396;SDS011;9834;48.076;11.878;2022-09-09T07:34:00;1.00;;;1.00;;
19396;SDS011;9834;48.076;11.878;2022-09-09T07:36:28;1.40;;;1.30;;
19396;SDS011;9834;48.076;11.878;2022-09-09T07:38:58;0.73;;;0.70;;
19396;SDS011;9834;48.076;11.878;2022-09-09T07:41:27;0.67;;;0.57;;
19396;SDS011;9834;48.076;11.878;2022-09-09T07:43:55;0.50;;;0.50;;
19396;SDS011;9834;48.076;11.878;2022-09-09T07:46:24;0.93;;;0.70;;
19396;SDS011;9834;48.076;11.878;2022-09-09T07:48:53;0.67;;;0.67;;
19396;SDS011;9834;48.076;11.878;2022-09-09T07:51:24;0.30;;;0.30;;
19396;SDS011;9834;48.076;11.878;2022-09-09T07:53:53;0.40;;;0.40;;
19396;SDS011;9834;48.076;11.878;2022-09-09T07:56:22;0.50;;;0.50;;
19396;SDS011;9834;48.076;11.878;2022-09-09T07:58:50;0.40;;;0.40;;
19396;SDS011;9834;48.076;11.878;2022-09-09T08:01:19;0.53;;;0.53;;
19396;SDS011;9834;48.076;11.878;2022-09-09T08:03:52;0.87;;;0.63;;
19396;SDS011;9834;48.076;11.878;2022-09-09T08:06:20;0.40;;;0.40;;
19396;SDS011;9834;48.076;11.878;2022-09-09T08:08:50;0.40;;;0.40;;
19396;SDS011;9834;48.076;11.878;2022-09-09T08:11:17;0.60;;;0.57;;
19396;SDS011;9834;48.076;11.878;2022-09-09T08:13:45;0.77;;;0.63;;
19396;SDS011;9834;48.076;11.878;2022-09-09T08:16:13;1.20;;;1.10;;
19396;SDS011;9834;48.076;11.878;2022-09-09T08:18:41;3.67;;;1.50;;
19396;SDS011;9834;48.076;11.878;2022-09-09T08:21:09;3.67;;;0.83;;
19396;SDS011;9834;48.076;11.878;2022-09-09T08:23:39;0.60;;;0.60;;
19396;SDS011;9834;48.076;11.878;2022-09-09T08:26:08;0.50;;;0.50;;
19396;SDS011;9834;48.076;11.878;2022-09-09T08:28:38;0.53;;;0.53;;
19396;SDS011;9834;48.076;11.878;2022-09-09T08:31:09;0.90;;;0.90;;
19396;SDS011;9834;48.076;11.878;2022-09-09T08:33:37;1.40;;;1.20;;
19396;SDS011;9834;48.076;11.878;2022-09-09T08:36:05;2.07;;;0.83;;
19396;SDS011;9834;48.076;11.878;2022-09-09T08:38:34;1.10;;;1.00;;
19396;SDS011;9834;48.076;11.878;2022-09-09T08:44:17;1.03;;;1.00;;
19396;SDS011;9834;48.076;11.878;2022-09-09T08:46:51;2.83;;;1.13;;
19396;SDS011;9834;48.076;11.878;2022-09-09T08:49:39;1.20;;;0.83;;
19396;SDS011;9834;48.076;11.878;2022-09-09T08:52:29;1.57;;;1.40;;
19396;SDS011;9834;48.076;11.878;2022-09-09T08:55:09;0.93;;;0.90;;
19396;SDS011;9834;48.076;11.878;2022-09-09T08:57:44;1.07;;;0.60;;
19396;SDS011;9834;48.076;11.878;2022-09-09T09:00:13;1.40;;;0.80;;
19396;SDS011;9834;48.076;11.878;2022-09-09T09:02:42;1.47;;;0.73;;
19396;SDS011;9834;48.076;11.878;2022-09-09T09:05:18;0.70;;;0.70;;
19396;SDS011;9834;48.076;11.878;2022-09-09T09:07:53;0.87;;;0.87;;
19396;SDS011;9834;48.076;11.878;2022-09-09T09:10:33;1.37;;;0.70;;
19396;SDS011;9834;48.076;11.878;2022-09-09T09:13:10;0.70;;;0.70;;
19396;SDS011;9834;48.076;11.878;2022-09-09T09:15:42;0.70;;;0.53;;
19396;SDS011;9834;48.076;11.878;2022-09-09T09:18:13;0.50;;;0.50;;
19396;SDS011;9834;48.076;11.878;2022-09-09T09:20:42;0.87;;;0.67;;
19396;SDS011;9834;48.076;11.878;2022-09-09T09:23:19;0.53;;;0.50;;
19396;SDS011;9834;48.076;11.878;2022-09-09T09:25:49;0.47;;;0.47;;
19396;SDS011;9834;48.076;11.878;2022-09-09T09:28:18;1.80;;;0.60;;
19396;SDS011;9834;48.076;11.878;2022-09-09T09:30:52;0.60;;;0.60;;
19396;SDS011;9834;48.076;11.878;2022-09-09T09:33:23;0.40;;;0.40;;
19396;SDS011;9834;48.076;11.878;2022-09-09T09:35:57;1.63;;;0.83;;
19396;SDS011;9834;48.076;11.878;2022-09-09T09:38:25;0.50;;;0.50;;
19396;SDS011;9834;48.076;11.878;2022-09-09T09:40:54;0.80;;;0.80;;
19396;SDS011;9834;48.076;11.878;2022-09-09T09:43:24;0.70;;;0.70;;
19396;SDS011;9834;48.076;11.878;2022-09-09T09:45:54;0.63;;;0.63;;
19396;SDS011;9834;48.076;11.878;2022-09-09T09:48:23;1.23;;;0.67;;
19396;SDS011;9834;48.076;11.878;2022-09-09T09:50:51;1.40;;;0.70;;
19396;SDS011;9834;48.076;11.878;2022-09-09T09:53:21;1.00;;;0.70;;
19396;SDS011;9834;48.076;11.878;2022-09-09T09:55:53;0.63;;;0.57;;
19396;SDS011;9834;48.076;11.878;2022-09-09T09:58:23;0.47;;;0.47;;
19396;SDS011;9834;48.076;11.878;2022-09-09T10:00:54;0.60;;;0.60;;
19396;SDS011;9834;48.076;11.878;2022-09-09T10:03:22;0.60;;;0.60;;
19396;SDS011;9834;48.076;11.878;2022-09-09T10:05:51;1.43;;;0.87;;
19396;SDS011;9834;48.076;11.878;2022-09-09T10:08:19;0.60;;;0.60;;
19396;SDS011;9834;48.076;11.878;2022-09-09T10:10:49;0.77;;;0.60;;
19396;SDS011;9834;48.076;11.878;2022-09-09T10:13:25;0.50;;;0.50;;
19396;SDS011;9834;48.076;11.878;2022-09-09T10:16:01;1.67;;;0.77;;
19396;SDS011;9834;48.076;11.878;2022-09-09T10:18:42;0.40;;;0.40;;
19396;SDS011;9834;48.076;11.878;2022-09-09T10:21:20;0.60;;;0.60;;
19396;SDS011;9834;48.076;11.878;2022-09-09T10:24:08;1.33;;;0.60;;
19396;SDS011;9834;48.076;11.878;2022-09-09T10:26:49;0.43;;;0.43;;
19396;SDS011;9834;48.076;11.878;2022-09-09T10:29:44;1.50;;;0.77;;
19396;SDS011;9834;48.076;11.878;2022-09-09T10:32:29;1.40;;;0.83;;
19396;SDS011;9834;48.076;11.878;2022-09-09T10:35:04;2.63;;;0.73;;
19396;SDS011;9834;48.076;11.878;2022-09-09T10:37:40;0.50;;;0.50;;
19396;SDS011;9834;48.076;11.878;2022-09-09T10:40:21;0.23;;;0.23;;
19396;SDS011;9834;48.076;11.878;2022-09-09T10:42:56;0.77;;;0.77;;
19396;SDS011;9834;48.076;11.878;2022-09-09T10:45:32;0.87;;;0.83;;
19396;SDS011;9834;48.076;11.878;2022-09-09T10:51:00;0.83;;;0.37;;
19396;SDS011;9834;48.076;11.878;2022-09-09T10:53:41;0.67;;;0.67;;
19396;SDS011;9834;48.076;11.878;2022-09-09T10:56:17;2.30;;;0.90;;
19396;SDS011;9834;48.076;11.878;2022-09-09T10:58:47;0.87;;;0.83;;
19396;SDS011;9834;48.076;11.878;2022-09-09T11:01:18;1.17;;;0.80;;
19396;SDS011;9834;48.076;11.878;2022-09-09T11:03:51;0.93;;;0.87;;
19396;SDS011;9834;48.076;11.878;2022-09-09T11:06:25;0.60;;;0.40;;
19396;SDS011;9834;48.076;11.878;2022-09-09T11:08:57;1.27;;;0.83;;
19396;SDS011;9834;48.076;11.878;2022-09-09T11:11:29;1.13;;;0.60;;
19396;SDS011;9834;48.076;11.878;2022-09-09T11:14:01;0.70;;;0.70;;
19396;SDS011;9834;48.076;11.878;2022-09-09T11:16:36;0.47;;;0.33;;
19396;SDS011;9834;48.076;11.878;2022-09-09T11:19:11;0.37;;;0.37;;
19396;SDS011;9834;48.076;11.878;2022-09-09T11:21:43;0.90;;;0.80;;
19396;SDS011;9834;48.076;11.878;2022-09-09T11:24:13;1.03;;;0.60;;
19396;SDS011;9834;48.076;11.878;2022-09-09T11:26:48;0.50;;;0.50;;
19396;SDS011;9834;48.076;11.878;2022-09-09T11:29:36;1.20;;;0.73;;
19396;SDS011;9834;48.076;11.878;2022-09-09T11:32:52;0.40;;;0.40;;
19396;SDS011;9834;48.076;11.878;2022-09-09T11:35:40;0.40;;;0.40;;
19396;SDS011;9834;48.076;11.878;2022-09-09T11:38:20;0.40;;;0.40;;
19396;SDS011;9834;48.076;11.878;2022-09-09T11:40:56;0.53;;;0.53;;
19396;SDS011;9834;48.076;11.878;2022-09-09T11:43:27;0.50;;;0.50;;
19396;SDS011;9834;48.076;11.878;2022-09-09T11:45:58;0.30;;;0.30;;
19396;SDS011;9834;48.076;11.878;2022-09-09T11:48:34;0.40;;;0.40;;
19396;SDS011;9834;48.076;11.878;2022-09-09T11:51:05;0.20;;;0.20;;
19396;SDS011;9834;48.076;11.878;2022-09-09T11:53:34;0.20;;;0.20;;
19396;SDS011;9834;48.076;11.878;2022-09-09T11:56:11;0.20;;;0.20;;
19396;SDS011;9834;48.076;11.878;2022-09-09T11:58:41;0.33;;;0.20;;
19396;SDS011;9834;48.076;11.878;2022-09-09T12:01:13;0.20;;;0.20;;
19396;SDS011;9834;48.076;11.878;2022-09-09T12:03:43;0.30;;;0.30;;
19396;SDS011;9834;48.076;11.878;2022-09-09T12:06:15;0.30;;;0.30;;
19396;SDS011;9834;48.076;11.878;2022-09-09T12:08:46;0.68;;;0.55;;
19396;SDS011;9834;48.076;11.878;2022-09-09T12:11:27;0.83;;;0.40;;
19396;SDS011;9834;48.076;11.878;2022-09-09T12:13:57;0.13;;;0.13;;
19396;SDS011;9834;48.076;11.878;2022-09-09T12:16:30;6.70;;;0.88;;
19396;SDS011;9834;48.076;11.878;2022-09-09T12:19:12;0.60;;;0.30;;
19396;SDS011;9834;48.076;11.878;2022-09-09T12:21:44;0.68;;;0.30;;
19396;SDS011;9834;48.076;11.878;2022-09-09T12:24:18;0.22;;;0.22;;
19396;SDS011;9834;48.076;11.878;2022-09-09T12:26:52;0.10;;;0.10;;
19396;SDS011;9834;48.076;11.878;2022-09-09T12:29:27;0.20;;;0.20;;
19396;SDS011;9834;48.076;11.878;2022-09-09T12:32:04;0.22;;;0.22;;
19396;SDS011;9834;48.076;11.878;2022-09-09T12:34:38;0.25;;;0.25;;
19396;SDS011;9834;48.076;11.878;2022-09-09T12:37:15;0.20;;;0.20;;
19396;SDS011;9834;48.076;11.878;2022-09-09T12:39:47;1.80;;;0.70;;
19396;SDS011;9834;48.076;11.878;2022-09-09T12:42:18;0.20;;;0.20;;
19396;SDS011;9834;48.076;11.878;2022-09-09T12:44:50;0.13;;;0.13;;
19396;SDS011;9834;48.076;11.878;2022-09-09T12:47:18;0.70;;;0.43;;
19396;SDS011;9834;48.076;11.878;2022-09-09T12:49:48;0.40;;;0.40;;
19396;SDS011;9834;48.076;11.878;2022-09-09T12:52:18;3.45;;;0.55;;
19396;SDS011;9834;48.076;11.878;2022-09-09T12:54:51;0.40;;;0.22;;
19396;SDS011;9834;48.076;11.878;2022-09-09T12:57:19;0.38;;;0.32;;
19396;SDS011;9834;48.076;11.878;2022-09-09T12:59:49;0.68;;;0.30;;
19396;SDS011;9834;48.076;11.878;2022-09-09T13:02:18;0.20;;;0.20;;
19396;SDS011;9834;48.076;11.878;2022-09-09T13:04:51;0.10;;;0.10;;
19396;SDS011;9834;48.076;11.878;2022-09-09T13:07:21;1.25;;;0.38;;
19396;SDS011;9834;48.076;11.878;2022-09-09T13:09:49;0.30;;;0.30;;
19396;SDS011;9834;48.076;11.878;2022-09-09T13:12:18;0.13;;;0.13;;
19396;SDS011;9834;48.076;11.878;2022-09-09T13:14:48;0.22;;;0.22;;
19396;SDS011;9834;48.076;11.878;2022-09-09T13:17:19;0.20;;;0.20;;
19396;SDS011;9834;48.076;11.878;2022-09-09T13:19:47;2.10;;;0.43;;
19396;SDS011;9834;48.076;11.878;2022-09-09T13:22:20;0.15;;;0.15;;
19396;SDS011;9834;48.076;11.878;2022-09-09T13:24:58;0.20;;;0.20;;
19396;SDS011;9834;48.076;11.878;2022-09-09T13:27:29;0.63;;;0.50;;
19396;SDS011;9834;48.076;11.878;2022-09-09T13:29:58;0.20;;;0.20;;
19396;SDS011;9834;48.076;11.878;2022-09-09T13:32:26;0.30;;;0.30;;
19396;SDS011;9834;48.076;11.878;2022-09-09T13:34:54;0.35;;;0.35;;
19396;SDS011;9834;48.076;11.878;2022-09-09T13:37:26;0.20;;;0.20;;
19396;SDS011;9834;48.076;11.878;2022-09-09T13:39:57;0.20;;;0.20;;
19396;SDS011;9834;48.076;11.878;2022-09-09T13:42:25;0.30;;;0.30;;
19396;SDS011;9834;48.076;11.878;2022-09-09T13:44:53;0.40;;;0.40;;
19396;SDS011;9834;48.076;11.878;2022-09-09T13:47:26;0.30;;;0.30;;
19396;SDS011;9834;48.076;11.878;2022-09-09T13:49:56;0.68;;;0.60;;
19396;SDS011;9834;48.076;11.878;2022-09-09T13:52:24;0.28;;;0.28;;
19396;SDS011;9834;48.076;11.878;2022-09-09T13:54:55;0.20;;;0.20;;
19396;SDS011;9834;48.076;11.878;2022-09-09T13:57:24;0.20;;;0.20;;
19396;SDS011;9834;48.076;11.878;2022-09-09T13:59:52;0.45;;;0.45;;
19396;SDS011;9834;48.076;11.878;2022-09-09T14:02:21;1.90;;;0.50;;
19396;SDS011;9834;48.076;11.878;2022-09-09T14:04:49;0.60;;;0.30;;
19396;SDS011;9834;48.076;11.878;2022-09-09T14:07:20;0.20;;;0.20;;
19396;SDS011;9834;48.076;11.878;2022-09-09T14:09:48;0.20;;;0.20;;
19396;SDS011;9834;48.076;11.878;2022-09-09T14:12:17;0.70;;;0.50;;
19396;SDS011;9834;48.076;11.878;2022-09-09T14:14:44;0.83;;;0.37;;
19396;SDS011;9834;48.076;11.878;2022-09-09T14:17:11;4.83;;;0.60;;
19396;SDS011;9834;48.076;11.878;2022-09-09T14:19:38;0.37;;;0.37;;
19396;SDS011;9834;48.076;11.878;2022-09-09T14:22:05;0.73;;;0.30;;
19396;SDS011;9834;48.076;11.878;2022-09-09T14:24:32;0.23;;;0.23;;
19396;SDS011;9834;48.076;11.878;2022-09-09T14:27:00;0.50;;;0.30;;
19396;SDS011;9834;48.076;11.878;2022-09-09T14:29:27;0.40;;;0.40;;
19396;SDS011;9834;48.076;11.878;2022-09-09T14:31:54;0.20;;;0.20;;
19396;SDS011;9834;48.076;11.878;2022-09-09T14:34:21;1.70;;;0.47;;
19396;SDS011;9834;48.076;11.878;2022-09-09T14:36:48;2.00;;;0.40;;
19396;SDS011;9834;48.076;11.878;2022-09-09T14:39:16;1.33;;;0.60;;
19396;SDS011;9834;48.076;11.878;2022-09-09T14:41:43;0.27;;;0.27;;
19396;SDS011;9834;48.076;11.878;2022-09-09T14:44:11;3.07;;;0.30;;
19396;SDS011;9834;48.076;11.878;2022-09-09T14:46:38;0.30;;;0.30;;
19396;SDS011;9834;48.076;11.878;2022-09-09T14:49:07;0.30;;;0.30;;
19396;SDS011;9834;48.076;11.878;2022-09-09T14:51:35;0.30;;;0.30;;
19396;SDS011;9834;48.076;11.878;2022-09-09T14:54:02;0.50;;;0.47;;
19396;SDS011;9834;48.076;11.878;2022-09-09T14:56:30;0.20;;;0.20;;
19396;SDS011;9834;48.076;11.878;2022-09-09T14:59:00;0.30;;;0.30;;
19396;SDS011;9834;48.076;11.878;2022-09-09T15:01:29;0.33;;;0.27;;
19396;SDS011;9834;48.076;11.878;2022-09-09T15:03:57;0.50;;;0.50;;
19396;SDS011;9834;48.076;11.878;2022-09-09T15:06:25;0.73;;;0.50;;
19396;SDS011;9834;48.076;11.878;2022-09-09T15:08:54;0.23;;;0.23;;
19396;SDS011;9834;48.076;11.878;2022-09-09T15:11:23;0.30;;;0.30;;
19396;SDS011;9834;48.076;11.878;2022-09-09T15:13:52;0.50;;;0.50;;
19396;SDS011;9834;48.076;11.878;2022-09-09T15:16:20;0.47;;;0.47;;
19396;SDS011;9834;48.076;11.878;2022-09-09T15:18:51;1.50;;;0.60;;